Time;durP1;ratioP1;P1;durP2;ratioP2;P2;SDS_P1;SDS_P2;PMS_P1;PMS_P2;Temp;Humidity;BMP_temperature;BMP_pressure;BME280_temperature;BME280_humidity;BME280_pressure;Samples;Min_cycle;Max_cycle;Signal;HPM_P1;HPM_P2
2023/08/29 00:00:22;;;;;;;8.57;6.20;;;;;;;11.17;100.00;101247.88;5052966;28;20033;-80
2023/08/29 00:02:48;;;;;;;8.52;6.35;;;;;;;11.23;100.00;101267.41;5052930;28;20025;-80
2023/08/29 00:05:14;;;;;;;11.13;7.05;;;;;;;11.27;100.00;101272.28;5052726;28;20028;-80
2023/08/29 00:07:39;;;;;;;8.15;7.03;;;;;;;11.25;100.00;101265.53;5052972;28;20021;-80
2023/08/29 00:10:05;;;;;;;9.05;6.85;;;;;;;11.24;100.00;101263.88;5052614;28;20025;-79
2023/08/29 00:12:34;;;;;;;9.40;6.72;;;;;;;11.20;100.00;101263.22;5052485;28;20031;-80
2023/08/29 00:15:00;;;;;;;7.68;6.40;;;;;;;11.15;100.00;101257.50;5052611;28;20032;-80
2023/08/29 00:17:26;;;;;;;8.15;6.70;;;;;;;11.18;100.00;101265.06;5052725;28;20190;-80
2023/08/29 00:19:52;;;;;;;8.07;6.32;;;;;;;11.19;100.00;101257.22;5052607;28;20087;-80
2023/08/29 00:22:18;;;;;;;8.25;6.32;;;;;;;11.11;100.00;101249.09;5052747;28;20442;-80
2023/08/29 00:24:44;;;;;;;10.00;6.75;;;;;;;11.12;100.00;101250.75;5034679;28;20033;-80
2023/08/29 00:27:12;;;;;;;8.15;6.53;;;;;;;11.09;100.00;101240.56;5052401;28;20082;-80
2023/08/29 00:29:37;;;;;;;9.18;7.00;;;;;;;11.10;100.00;101241.41;5052827;28;20037;-80
2023/08/29 00:32:03;;;;;;;8.43;6.45;;;;;;;11.11;100.00;101240.47;5052357;28;20032;-80
2023/08/29 00:34:29;;;;;;;8.50;5.53;;;;;;;11.10;100.00;101238.81;5052753;28;20028;-80
2023/08/29 00:36:54;;;;;;;10.93;6.75;;;;;;;11.03;100.00;101227.22;5052493;28;20425;-80
2023/08/29 00:39:19;;;;;;;9.65;6.60;;;;;;;10.89;100.00;101205.56;5052555;28;20468;-80
2023/08/29 00:41:49;;;;;;;8.35;6.07;;;;;;;11.06;100.00;101238.19;5052425;28;20025;-80
2023/08/29 00:44:17;;;;;;;10.68;7.30;;;;;;;10.91;100.00;101211.50;5052315;28;20498;-80
2023/08/29 00:46:45;;;;;;;7.53;6.38;;;;;;;11.03;100.00;101237.53;5052489;28;20029;-80
2023/08/29 00:49:13;;;;;;;12.80;6.68;;;;;;;11.06;100.00;101234.78;5052273;28;20468;-80
2023/08/29 00:51:39;;;;;;;8.23;6.20;;;;;;;10.85;100.00;101211.00;5052294;28;20533;-79
2023/08/29 00:54:06;;;;;;;7.53;6.40;;;;;;;10.86;100.00;101220.44;5052242;28;20025;-80
2023/08/29 00:56:32;;;;;;;8.82;6.15;;;;;;;10.88;100.00;101211.66;5051859;28;20390;-80
2023/08/29 00:58:59;;;;;;;10.07;6.45;;;;;;;10.93;100.00;101239.00;5053673;28;20028;-80
2023/08/29 01:01:24;;;;;;;9.30;6.03;;;;;;;10.77;100.00;101224.38;5056117;28;20071;-79
2023/08/29 01:03:50;;;;;;;9.38;7.60;;;;;;;11.03;100.00;101240.13;5056285;28;20021;-80
2023/08/29 01:06:16;;;;;;;8.20;6.15;;;;;;;10.94;100.00;101240.66;5056167;28;20036;-80
2023/08/29 01:08:43;;;;;;;7.40;5.70;;;;;;;10.72;100.00;101212.66;5038547;28;20028;-80
2023/08/29 01:11:39;;;;;;;8.10;6.57;;;;;;;10.85;100.00;101234.25;5037885;28;20036;-80
2023/08/29 01:14:18;;;;;;;9.20;6.35;;;;;;;10.72;100.00;101216.06;5056081;28;20043;-80
2023/08/29 01:16:52;;;;;;;8.88;6.13;;;;;;;10.74;100.00;101226.31;5055966;28;20099;-80
2023/08/29 01:19:21;;;;;;;7.97;6.10;;;;;;;10.80;100.00;101234.50;5055884;28;20029;-80
2023/08/29 01:22:04;;;;;;;9.43;6.38;;;;;;;10.62;100.00;101220.09;5055772;28;20163;-80
2023/08/29 01:24:36;;;;;;;8.48;6.22;;;;;;;10.73;100.00;101235.81;5056093;28;20074;-80
2023/08/29 01:27:03;;;;;;;8.13;6.10;;;;;;;10.66;100.00;101223.31;5055700;28;20028;-80
2023/08/29 01:29:29;;;;;;;14.23;6.95;;;;;;;10.58;100.00;101216.81;5055649;28;20020;-80
2023/08/29 01:31:56;;;;;;;9.13;7.07;;;;;;;10.54;100.00;101217.94;5037827;28;20025;-80
2023/08/29 01:34:22;;;;;;;8.65;6.90;;;;;;;10.65;100.00;101234.56;5037733;28;20104;-80
2023/08/29 01:36:47;;;;;;;10.32;6.65;;;;;;;10.67;100.00;101237.91;5055861;28;20099;-80
2023/08/29 01:39:13;;;;;;;9.35;7.70;;;;;;;10.71;100.00;101245.38;5055787;28;20707;-80
2023/08/29 01:41:38;;;;;;;10.40;7.72;;;;;;;10.55;100.00;101211.84;5055484;28;20025;-80
2023/08/29 01:44:05;;;;;;;8.65;6.75;;;;;;;10.65;100.00;101239.75;5055443;28;20116;-80
2023/08/29 01:46:30;;;;;;;9.65;7.57;;;;;;;10.54;100.00;101222.28;5055365;28;20032;-80
2023/08/29 01:49:01;;;;;;;15.35;7.55;;;;;;;10.41;100.00;101216.94;5055437;28;20033;-80
2023/08/29 01:51:27;;;;;;;11.35;7.57;;;;;;;10.62;100.00;101241.59;5055430;28;20350;-80
2023/08/29 01:53:53;;;;;;;9.90;8.55;;;;;;;10.61;100.00;101245.06;5055252;28;20074;-80
2023/08/29 01:56:20;;;;;;;11.60;8.30;;;;;;;10.59;100.00;101248.66;5055117;28;20021;-79
2023/08/29 01:58:47;;;;;;;10.05;7.88;;;;;;;10.43;100.00;101224.63;5055071;28;20079;-81
2023/08/29 02:01:14;;;;;;;11.02;8.10;;;;;;;10.59;100.00;101252.06;5055147;28;20025;-79
2023/08/29 02:03:39;;;;;;;11.70;8.13;;;;;;;10.57;100.00;101256.50;5055124;28;20025;-79
2023/08/29 02:06:04;;;;;;;10.18;8.05;;;;;;;10.41;100.00;101231.59;5055013;28;20021;-79
2023/08/29 02:11:05;;;;;;;14.23;9.05;;;;;;;10.43;100.00;101230.63;5642097;22;20115;-79
2023/08/29 02:13:31;;;;;;;10.55;8.30;;;;;;;10.55;100.00;101258.34;5054744;28;20455;-79
2023/08/29 02:15:56;;;;;;;9.55;8.18;;;;;;;10.49;100.00;101256.06;5055102;28;20036;-79
2023/08/29 02:18:21;;;;;;;10.13;7.75;;;;;;;10.43;100.00;101237.53;5055001;28;20017;-79
2023/08/29 02:20:47;;;;;;;12.77;8.05;;;;;;;10.48;100.00;101246.66;5055039;28;20053;-79
2023/08/29 02:23:12;;;;;;;12.07;8.00;;;;;;;10.44;100.00;101247.78;5054965;28;20036;-79
2023/08/29 02:25:37;;;;;;;10.00;8.10;;;;;;;10.41;100.00;101237.59;5054753;28;20029;-79
2023/08/29 02:28:03;;;;;;;10.57;8.77;;;;;;;10.54;100.00;101263.59;5036716;28;20028;-80
2023/08/29 02:30:28;;;;;;;9.88;8.05;;;;;;;10.36;100.00;101247.34;5054738;28;20112;-79
2023/08/29 02:33:20;;;;;;;10.75;8.27;;;;;;;10.47;100.00;101275.16;5054746;28;20033;-80
2023/08/29 02:35:48;;;;;;;9.52;7.38;;;;;;;10.45;100.00;101275.25;5039784;28;20463;-79
2023/08/29 02:38:13;;;;;;;10.40;7.85;;;;;;;10.40;100.00;101272.06;5054765;28;20029;-79
2023/08/29 02:40:39;;;;;;;8.70;6.90;;;;;;;10.40;100.00;101279.00;5054583;28;20035;-80
2023/08/29 02:43:04;;;;;;;9.02;6.97;;;;;;;10.28;100.00;101273.59;5054380;28;20053;-80
2023/08/29 02:45:29;;;;;;;8.98;6.75;;;;;;;10.31;100.00;101286.31;5054351;28;20029;-80
2023/08/29 02:47:55;;;;;;;8.13;6.78;;;;;;;10.00;100.00;101234.69;5054370;28;20443;-80
2023/08/29 02:50:20;;;;;;;8.35;6.63;;;;;;;10.20;100.00;101280.03;5054327;28;20408;-80
2023/08/29 02:52:45;;;;;;;8.93;7.22;;;;;;;10.17;100.00;101275.88;5053976;28;20067;-80
2023/08/29 02:55:10;;;;;;;8.18;6.43;;;;;;;10.05;100.00;101264.50;5036560;28;20029;-80
2023/08/29 02:57:36;;;;;;;9.52;6.63;;;;;;;10.02;100.00;101253.47;5054095;28;20020;-80
2023/08/29 03:00:01;;;;;;;8.57;6.63;;;;;;;10.05;100.00;101259.31;5054072;28;20032;-80
2023/08/29 03:02:27;;;;;;;9.73;6.78;;;;;;;10.23;100.00;101287.69;5054058;28;20031;-80
2023/08/29 03:04:53;;;;;;;9.35;7.10;;;;;;;10.24;100.00;101286.75;5053949;28;20223;-80
2023/08/29 03:07:18;;;;;;;10.13;7.20;;;;;;;10.23;100.00;101290.25;5053898;28;20025;-80
2023/08/29 03:09:43;;;;;;;8.82;6.72;;;;;;;10.03;100.00;101263.75;5036134;28;20464;-80
2023/08/29 03:12:08;;;;;;;12.38;7.15;;;;;;;10.13;100.00;101283.88;5053726;28;20124;-80
2023/08/29 03:14:34;;;;;;;9.77;7.07;;;;;;;10.17;100.00;101287.97;5053698;28;20083;-80
2023/08/29 03:16:59;;;;;;;9.30;6.78;;;;;;;10.10;100.00;101290.03;5035812;28;20041;-80
2023/08/29 03:19:24;;;;;;;9.70;6.97;;;;;;;10.13;100.00;101286.44;5053448;28;20025;-80
2023/08/29 03:21:50;;;;;;;10.38;7.00;;;;;;;10.10;100.00;101289.19;5052650;28;20039;-80
2023/08/29 03:24:15;;;;;;;10.10;7.00;;;;;;;9.89;100.00;101253.31;5053686;28;20021;-80
2023/08/29 03:26:40;;;;;;;10.45;7.15;;;;;;;10.01;100.00;101265.56;5053735;28;20018;-80
2023/08/29 03:29:06;;;;;;;8.38;6.85;;;;;;;10.00;100.00;101271.63;5053345;28;20028;-80
2023/08/29 03:31:31;;;;;;;8.57;6.60;;;;;;;9.99;100.00;101266.56;5053360;28;20032;-80
2023/08/29 03:33:56;;;;;;;9.10;7.10;;;;;;;9.99;100.00;101264.81;5053385;28;20025;-80
2023/08/29 03:36:22;;;;;;;8.32;7.10;;;;;;;9.99;100.00;101261.41;5053276;28;20396;-80
2023/08/29 03:38:47;;;;;;;8.40;6.97;;;;;;;10.09;100.00;101269.47;5053302;28;20037;-80
2023/08/29 03:41:12;;;;;;;9.85;7.60;;;;;;;10.04;100.00;101251.69;5053528;28;20021;-80
2023/08/29 03:43:38;;;;;;;10.32;8.07;;;;;;;10.06;100.00;101258.41;5053200;28;20534;-80
2023/08/29 03:46:05;;;;;;;9.45;7.57;;;;;;;10.02;100.00;101256.06;5053097;28;20028;-80
2023/08/29 03:48:31;;;;;;;8.85;7.13;;;;;;;9.87;100.00;101234.50;5052953;28;20112;-79
2023/08/29 03:50:58;;;;;;;10.52;7.55;;;;;;;9.94;100.00;101235.03;5052929;28;20029;-80
2023/08/29 03:53:24;;;;;;;11.50;7.60;;;;;;;9.95;100.00;101249.59;5053019;28;20035;-80
2023/08/29 03:55:49;;;;;;;10.60;7.55;;;;;;;9.87;100.00;101229.34;5034615;28;20033;-80
2023/08/29 03:58:16;;;;;;;9.55;7.97;;;;;;;9.84;100.00;101226.13;5053078;28;20025;-80
2023/08/29 04:00:42;;;;;;;10.50;8.00;;;;;;;9.89;100.00;101247.31;5035465;28;20027;-80
2023/08/29 04:03:08;;;;;;;11.32;8.00;;;;;;;9.85;100.00;101232.94;5052791;28;20028;-80
2023/08/29 04:05:35;;;;;;;10.10;7.40;;;;;;;9.78;100.00;101230.66;5052788;28;20040;-80
2023/08/29 04:08:01;;;;;;;10.80;8.00;;;;;;;9.84;100.00;101242.44;5052646;28;20025;-80
2023/08/29 04:10:27;;;;;;;11.20;7.85;;;;;;;9.82;100.00;101238.25;5052914;28;20025;-80
2023/08/29 04:12:52;;;;;;;10.15;7.47;;;;;;;9.65;100.00;101211.63;5052572;28;20063;-80
2023/08/29 04:15:18;;;;;;;9.82;7.53;;;;;;;9.66;100.00;101215.84;5052567;28;20075;-80
2023/08/29 04:17:44;;;;;;;9.30;7.32;;;;;;;9.72;100.00;101230.16;5052673;28;20017;-80
2023/08/29 04:20:12;;;;;;;10.10;7.38;;;;;;;9.69;100.00;101220.84;5052502;28;20021;-80
2023/08/29 04:22:38;;;;;;;9.95;6.90;;;;;;;9.59;100.00;101205.94;5052833;28;20111;-78
2023/08/29 04:25:05;;;;;;;9.57;7.18;;;;;;;9.54;100.00;101203.63;5052511;28;20025;-80
2023/08/29 04:27:31;;;;;;;10.50;7.80;;;;;;;9.59;100.00;101217.09;5052420;28;20464;-80
2023/08/29 04:29:56;;;;;;;9.73;7.90;;;;;;;9.61;100.00;101222.97;5052259;28;20029;-80
2023/08/29 04:32:22;;;;;;;10.65;8.13;;;;;;;9.59;100.00;101216.25;5051989;28;20036;-80
2023/08/29 04:34:47;;;;;;;12.60;7.90;;;;;;;9.58;100.00;101217.16;5052388;28;20031;-79
2023/08/29 04:37:13;;;;;;;10.90;8.48;;;;;;;9.60;100.00;101210.19;5052446;28;20112;-80
2023/08/29 04:39:38;;;;;;;12.68;8.38;;;;;;;9.55;100.00;101200.13;5034762;28;20104;-80
2023/08/29 04:42:03;;;;;;;11.52;8.20;;;;;;;9.65;100.00;101221.94;5052370;28;20375;-80
2023/08/29 04:44:29;;;;;;;10.13;8.35;;;;;;;9.65;100.00;101221.09;5034134;28;20025;-80
2023/08/29 04:46:54;;;;;;;12.65;8.90;;;;;;;9.58;100.00;101199.13;5052319;28;20033;-80
2023/08/29 04:49:20;;;;;;;13.07;9.52;;;;;;;9.58;100.00;101193.97;5052349;28;20028;-80
2023/08/29 04:51:45;;;;;;;11.57;8.82;;;;;;;9.70;100.00;101216.50;5052268;28;20060;-79
2023/08/29 04:54:10;;;;;;;11.05;8.68;;;;;;;9.73;100.00;101218.91;5052407;28;20419;-80
2023/08/29 04:56:36;;;;;;;12.27;9.13;;;;;;;9.80;100.00;101224.59;5052257;28;20021;-80
2023/08/29 04:59:01;;;;;;;12.48;9.50;;;;;;;9.83;100.00;101216.69;5052067;28;20018;-80
2023/08/29 05:01:26;;;;;;;13.05;9.77;;;;;;;9.85;100.00;101226.03;5059814;22;20049;-79
2023/08/29 05:03:52;;;;;;;12.90;9.27;;;;;;;9.89;100.00;101217.19;5052047;28;20028;-80
2023/08/29 05:06:17;;;;;;;13.88;10.45;;;;;;;9.96;100.00;101223.69;5052323;28;20106;-80
2023/08/29 05:08:42;;;;;;;13.25;10.00;;;;;;;9.86;100.00;101196.72;5052044;28;20060;-80
2023/08/29 05:11:08;;;;;;;13.57;10.82;;;;;;;10.02;100.00;101217.34;5052165;28;20151;-80
2023/08/29 05:13:34;;;;;;;23.20;11.63;;;;;;;10.18;100.00;101215.63;5051810;28;20029;-80
2023/08/29 05:15:59;;;;;;;14.38;11.38;;;;;;;10.27;100.00;101222.06;5051815;28;20040;-79
2023/08/29 05:18:24;;;;;;;14.55;11.50;;;;;;;10.30;100.00;101217.53;5052077;28;20021;-80
2023/08/29 05:20:50;;;;;;;13.90;11.05;;;;;;;10.34;100.00;101213.06;5052065;28;20115;-80
2023/08/29 05:23:15;;;;;;;22.58;12.85;;;;;;;10.45;100.00;101220.19;5033852;28;20033;-80
2023/08/29 05:25:40;;;;;;;17.48;12.65;;;;;;;10.27;100.00;101173.00;5052038;28;20049;-79
2023/08/29 05:28:05;;;;;;;21.08;12.95;;;;;;;10.48;100.00;101202.78;5051748;28;20147;-80
2023/08/29 05:30:31;;;;;;;19.60;12.45;;;;;;;10.60;100.00;101217.56;5051632;28;20103;-79
2023/08/29 05:32:56;;;;;;;20.17;11.63;;;;;;;10.62;100.00;101202.84;5051782;28;20060;-78
2023/08/29 05:35:22;;;;;;;14.30;11.65;;;;;;;10.86;100.00;101228.19;5051961;28;20032;-79
2023/08/29 05:37:47;;;;;;;14.60;11.27;;;;;;;10.94;100.00;101223.41;5051971;28;20025;-79
2023/08/29 05:40:12;;;;;;;15.60;12.13;;;;;;;11.07;100.00;101221.75;5051875;28;20029;-79
2023/08/29 05:42:38;;;;;;;15.07;11.38;;;;;;;11.13;100.00;101216.22;5051747;28;20112;-79
2023/08/29 05:45:03;;;;;;;14.00;11.00;;;;;;;11.30;100.00;101232.47;5053203;28;20025;-79
2023/08/29 05:47:29;;;;;;;15.43;12.07;;;;;;;11.25;100.00;101196.56;5055333;28;20021;-79
2023/08/29 05:49:57;;;;;;;14.50;11.00;;;;;;;11.40;100.00;101203.38;5055513;28;20039;-79
2023/08/29 05:52:23;;;;;;;13.10;10.60;;;;;;;11.66;100.00;101222.50;5055365;28;20131;-79
2023/08/29 05:54:48;;;;;;;13.02;10.63;;;;;;;11.81;100.00;101225.13;5055144;28;20457;-79
2023/08/29 05:57:14;;;;;;;11.00;9.70;;;;;;;11.94;100.00;101226.84;5055469;28;20079;-79
2023/08/29 05:59:39;;;;;;;12.68;9.63;;;;;;;12.10;100.00;101228.50;5055507;28;20029;-79
2023/08/29 06:02:05;;;;;;;11.70;9.48;;;;;;;12.25;100.00;101217.97;5054749;28;20045;-79
2023/08/29 06:04:32;;;;;;;12.07;8.63;;;;;;;12.60;100.00;101233.84;5037172;28;20090;-78
2023/08/29 06:06:58;;;;;;;12.55;8.90;;;;;;;13.08;100.00;101231.56;5037651;28;20028;-79
2023/08/29 06:09:23;;;;;;;10.02;8.45;;;;;;;13.56;100.00;101231.75;5036764;28;20067;-79
2023/08/29 06:11:49;;;;;;;10.27;8.18;;;;;;;14.26;100.00;101237.22;5054944;28;20539;-79
2023/08/29 06:14:14;;;;;;;8.73;7.20;;;;;;;14.85;100.00;101237.25;5055332;28;20028;-79
2023/08/29 06:16:39;;;;;;;8.98;7.20;;;;;;;15.37;100.00;101237.66;5054782;28;20025;-79
2023/08/29 06:19:05;;;;;;;8.80;6.82;;;;;;;15.66;100.00;101241.50;5054700;28;20078;-79
2023/08/29 06:21:30;;;;;;;7.88;6.55;;;;;;;15.99;100.00;101239.78;5055058;28;20028;-80
2023/08/29 06:23:56;;;;;;;8.52;6.57;;;;;;;15.92;100.00;101196.94;5053830;28;20086;-79
2023/08/29 06:26:21;;;;;;;8.23;5.78;;;;;;;16.10;100.00;101225.91;5055276;28;20021;-78
2023/08/29 06:28:47;;;;;;;8.85;6.03;;;;;;;16.25;100.00;101238.53;5054938;28;20021;-79
2023/08/29 06:31:12;;;;;;;8.60;6.30;;;;;;;16.42;100.00;101233.72;5054872;28;20025;-79
2023/08/29 06:33:39;;;;;;;8.52;6.50;;;;;;;16.55;100.00;101211.78;5054465;28;20032;-75
2023/08/29 06:36:05;;;;;;;8.85;6.50;;;;;;;17.10;99.27;101216.81;5054479;28;20049;-79
2023/08/29 06:38:30;;;;;;;9.43;6.10;;;;;;;17.83;95.95;101230.63;5054410;28;20142;-78
2023/08/29 06:40:57;;;;;;;8.10;5.90;;;;;;;18.23;92.65;101223.53;5054491;28;20098;-78
2023/08/29 06:43:26;;;;;;;8.52;5.45;;;;;;;18.12;92.63;101222.84;5054282;28;20471;-79
2023/08/29 06:45:51;;;;;;;6.88;4.50;;;;;;;17.96;96.07;101220.72;5054400;28;20017;-77
2023/08/29 06:48:17;;;;;;;7.75;6.00;;;;;;;17.67;96.92;101223.25;5054426;28;20453;-78
2023/08/29 06:50:43;;;;;;;9.07;5.68;;;;;;;17.48;97.18;101216.16;5054439;28;20464;-79
2023/08/29 06:53:08;;;;;;;5.78;4.15;;;;;;;17.71;99.93;101228.13;5036027;28;20485;-80
2023/08/29 06:55:34;;;;;;;10.65;5.97;;;;;;;17.61;97.48;101203.72;5054325;28;20025;-79
2023/08/29 06:58:06;;;;;;;7.90;5.90;;;;;;;17.58;98.61;101205.75;5052986;28;20131;-78
2023/08/29 07:00:32;;;;;;;8.38;5.53;;;;;;;17.71;96.91;101222.06;5054685;28;20156;-79
2023/08/29 07:02:58;;;;;;;8.23;5.80;;;;;;;17.86;98.03;101230.34;5054354;28;20037;-79
2023/08/29 07:05:23;;;;;;;8.43;5.85;;;;;;;18.01;95.26;101223.78;5053953;28;20111;-79
2023/08/29 07:07:49;;;;;;;7.65;5.88;;;;;;;18.15;93.18;101205.09;5053937;28;20156;-78
2023/08/29 07:10:14;;;;;;;7.00;5.05;;;;;;;18.18;93.57;101228.31;5054038;28;20060;-76
2023/08/29 07:12:40;;;;;;;7.43;5.47;;;;;;;17.94;96.69;101226.09;5053350;28;20020;-76
2023/08/29 07:15:06;;;;;;;7.28;4.72;;;;;;;17.72;97.47;101226.31;5054802;28;20039;-79
2023/08/29 07:17:31;;;;;;;6.60;4.95;;;;;;;17.41;98.12;101202.84;5054527;28;20484;-76
2023/08/29 07:19:57;;;;;;;5.88;4.00;;;;;;;17.47;99.67;101217.94;5053715;28;20460;-78
2023/08/29 07:22:22;;;;;;;8.85;5.45;;;;;;;17.34;99.29;101216.53;5053635;28;20025;-78
2023/08/29 07:24:48;;;;;;;9.27;6.00;;;;;;;17.12;100.00;101202.69;5053877;28;20024;-79
2023/08/29 07:27:13;;;;;;;6.80;4.60;;;;;;;17.18;100.00;101207.38;5053584;28;20036;-79
2023/08/29 07:29:38;;;;;;;6.50;4.60;;;;;;;17.09;100.00;101210.75;5053859;28;20452;-80
2023/08/29 07:32:04;;;;;;;7.65;4.45;;;;;;;17.03;100.00;101198.25;5053492;28;20558;-78
2023/08/29 07:34:30;;;;;;;6.60;4.03;;;;;;;17.29;99.72;101226.53;5053754;28;20057;-79
2023/08/29 07:36:55;;;;;;;6.38;4.97;;;;;;;17.32;100.00;101221.06;5053756;28;20055;-79
2023/08/29 07:39:22;;;;;;;6.63;4.60;;;;;;;17.53;100.00;101224.44;5053463;28;20491;-79
2023/08/29 07:41:47;;;;;;;7.18;4.70;;;;;;;17.48;100.00;101222.22;5053621;28;20524;-79
2023/08/29 07:44:13;;;;;;;5.70;3.15;;;;;;;17.74;100.00;101232.25;5053342;28;20045;-79
2023/08/29 07:46:38;;;;;;;6.80;3.90;;;;;;;17.84;100.00;101229.66;5053387;28;20044;-79
2023/08/29 07:49:10;;;;;;;6.90;5.38;;;;;;;17.73;99.99;101228.81;5053091;28;20017;-80
2023/08/29 07:51:35;;;;;;;8.70;4.00;;;;;;;17.95;100.00;101238.19;5053256;28;20104;-79
2023/08/29 07:54:01;;;;;;;6.30;4.57;;;;;;;18.00;100.00;101237.81;5052553;28;20115;-79
2023/08/29 07:56:26;;;;;;;7.30;5.32;;;;;;;17.93;98.55;101237.50;5052740;28;20056;-79
2023/08/29 07:58:53;;;;;;;7.82;5.30;;;;;;;17.77;98.52;101226.75;5053556;28;20045;-80
2023/08/29 08:01:18;;;;;;;7.55;5.00;;;;;;;17.96;100.00;101236.41;5053095;28;20041;-79
2023/08/29 08:03:44;;;;;;;6.82;4.93;;;;;;;17.97;99.51;101225.00;5034851;28;20068;-80
2023/08/29 08:06:09;;;;;;;7.68;4.38;;;;;;;18.03;99.13;101225.28;5053244;28;20487;-80
2023/08/29 08:08:35;;;;;;;6.32;4.05;;;;;;;18.13;98.73;101227.94;5052532;28;20075;-80
2023/08/29 08:11:00;;;;;;;6.78;4.38;;;;;;;18.16;97.97;101237.28;5034741;28;20102;-81
2023/08/29 08:13:28;;;;;;;6.85;5.05;;;;;;;18.12;98.25;101218.44;5034207;28;20130;-80
2023/08/29 08:15:53;;;;;;;6.90;3.58;;;;;;;18.21;95.98;101215.00;5052857;28;20017;-80
2023/08/29 08:18:19;;;;;;;6.85;4.30;;;;;;;18.46;96.33;101236.31;5052962;28;20047;-80
2023/08/29 08:20:44;;;;;;;5.95;4.05;;;;;;;18.58;96.28;101235.22;5052999;28;20029;-79
2023/08/29 08:23:09;;;;;;;6.32;4.15;;;;;;;18.68;94.97;101235.25;5052795;28;20051;-78
2023/08/29 08:25:35;;;;;;;7.90;4.30;;;;;;;18.59;93.25;101214.19;5052810;28;20029;-79
2023/08/29 08:28:00;;;;;;;6.18;3.70;;;;;;;18.70;93.65;101215.84;5052692;28;20472;-78
2023/08/29 08:30:27;;;;;;;6.10;3.50;;;;;;;18.90;93.67;101233.16;5052661;28;20391;-78
2023/08/29 08:32:52;;;;;;;9.10;4.50;;;;;;;18.97;93.86;101232.59;5052547;28;20606;-78
2023/08/29 08:35:18;;;;;;;7.32;3.65;;;;;;;18.96;93.20;101230.94;5052776;28;20024;-78
2023/08/29 08:37:43;;;;;;;5.60;3.20;;;;;;;19.06;92.33;101232.56;5052595;28;20036;-76
2023/08/29 08:40:10;;;;;;;4.88;2.70;;;;;;;19.07;91.63;101239.44;5052650;28;20468;-76
2023/08/29 08:42:44;;;;;;;4.55;2.10;;;;;;;19.15;91.36;101217.81;5059474;22;20147;-79
2023/08/29 08:45:10;;;;;;;6.40;2.80;;;;;;;19.27;92.17;101237.63;5052241;28;20023;-79
2023/08/29 08:47:37;;;;;;;4.80;3.00;;;;;;;19.44;91.95;101249.94;5052686;28;20028;-79
2023/08/29 08:50:10;;;;;;;7.15;3.17;;;;;;;19.28;90.71;101225.38;5052344;28;20024;-78
2023/08/29 08:52:38;;;;;;;4.88;2.70;;;;;;;19.37;92.14;101211.38;5052461;28;20029;-79
2023/08/29 08:55:05;;;;;;;4.93;3.10;;;;;;;19.58;92.59;101235.59;5052425;28;20086;-79
2023/08/29 08:57:31;;;;;;;5.53;3.25;;;;;;;19.66;92.88;101240.09;5052365;28;20025;-78
2023/08/29 08:59:56;;;;;;;5.53;3.10;;;;;;;19.67;93.19;101213.78;5052225;28;20395;-79
2023/08/29 09:02:22;;;;;;;6.35;3.75;;;;;;;19.79;90.77;101229.28;5052511;28;20025;-78
2023/08/29 09:04:48;;;;;;;5.68;3.38;;;;;;;19.75;88.95;101213.84;5052393;28;20021;-78
2023/08/29 09:07:14;;;;;;;5.53;3.13;;;;;;;19.93;88.60;101207.81;5052185;28;20353;-77
2023/08/29 09:09:39;;;;;;;4.70;2.88;;;;;;;20.19;92.01;101221.84;5052363;28;20409;-80
2023/08/29 09:12:05;;;;;;;4.00;2.22;;;;;;;20.42;90.77;101221.38;5052150;28;20570;-80
2023/08/29 09:14:31;;;;;;;4.38;2.28;;;;;;;20.54;86.47;101233.31;5052230;28;20082;-80
2023/08/29 09:17:01;;;;;;;5.55;2.38;;;;;;;20.62;85.91;101234.22;5052230;28;20021;-79
2023/08/29 09:19:43;;;;;;;5.22;2.40;;;;;;;20.56;85.08;101218.28;5052427;28;20028;-77
2023/08/29 09:22:09;;;;;;;4.82;2.95;;;;;;;20.59;82.47;101221.41;5056255;28;20052;-79
2023/08/29 09:24:35;;;;;;;5.13;2.80;;;;;;;20.53;80.92;101202.81;5056216;28;20064;-80
2023/08/29 09:27:09;;;;;;;3.67;2.00;;;;;;;20.59;82.34;101199.59;5055842;28;20032;-79
2023/08/29 09:29:35;;;;;;;4.32;1.92;;;;;;;20.50;81.01;101182.97;5055996;28;20082;-79
2023/08/29 09:32:12;;;;;;;5.32;2.22;;;;;;;20.83;82.15;101230.44;5055869;28;20028;-80
2023/08/29 09:34:37;;;;;;;4.25;1.98;;;;;;;20.63;78.82;101203.56;5055663;28;20511;-79
2023/08/29 09:37:04;;;;;;;3.40;1.92;;;;;;;20.78;81.21;101215.16;5037622;28;20041;-79
2023/08/29 09:39:29;;;;;;;3.60;1.70;;;;;;;20.99;79.39;101245.47;5055729;28;20029;-79
2023/08/29 09:42:02;;;;;;;3.85;1.90;;;;;;;21.04;79.57;101243.19;5055453;28;20562;-79
2023/08/29 09:44:28;;;;;;;5.22;1.70;;;;;;;21.04;80.11;101237.94;5055611;28;20033;-79
2023/08/29 09:46:54;;;;;;;4.80;1.30;;;;;;;20.86;76.26;101244.09;5055813;28;20392;-80
2023/08/29 09:49:19;;;;;;;2.22;1.30;;;;;;;20.68;80.18;101214.44;5055700;28;20025;-80
2023/08/29 09:51:47;;;;;;;3.60;1.40;;;;;;;20.79;81.25;101231.72;5055461;28;20555;-80
2023/08/29 09:54:16;;;;;;;3.33;1.77;;;;;;;20.74;80.66;101220.84;5055331;28;20029;-79
2023/08/29 09:56:43;;;;;;;5.85;1.40;;;;;;;20.65;79.40;101208.63;5055531;28;20066;-79
2023/08/29 09:59:12;;;;;;;4.07;1.80;;;;;;;20.84;81.82;101225.06;5055629;28;20060;-80
2023/08/29 10:01:40;;;;;;;3.13;1.55;;;;;;;20.98;80.51;101225.47;5055570;28;20033;-80
2023/08/29 10:04:07;;;;;;;5.32;1.90;;;;;;;21.01;79.81;101222.50;5055188;28;20024;-78
2023/08/29 10:06:36;;;;;;;4.70;2.60;;;;;;;20.91;77.09;101217.38;5055287;28;20028;-79
2023/08/29 10:09:05;;;;;;;5.22;2.03;;;;;;;21.01;77.42;101218.09;5053112;28;20020;-78
2023/08/29 10:11:31;;;;;;;3.40;1.55;;;;;;;21.13;76.04;101214.22;5055940;28;20043;-80
2023/08/29 10:13:58;;;;;;;3.35;1.60;;;;;;;21.27;76.86;101212.03;5055494;28;20029;-79
2023/08/29 10:16:24;;;;;;;3.25;1.60;;;;;;;21.31;75.44;101198.41;5054933;28;20484;-79
2023/08/29 10:18:50;;;;;;;3.58;1.40;;;;;;;21.46;73.33;101207.34;5055286;28;20060;-77
2023/08/29 10:21:17;;;;;;;4.32;1.42;;;;;;;21.67;74.29;101203.50;5054623;28;20369;-77
2023/08/29 10:23:44;;;;;;;1.75;1.10;;;;;;;21.57;70.65;101193.09;5054749;28;20392;-79
2023/08/29 10:26:10;;;;;;;2.63;1.40;;;;;;;21.46;71.95;101170.56;5055285;28;20021;-79
2023/08/29 10:28:37;;;;;;;2.85;1.02;;;;;;;21.68;70.77;101207.75;5054856;28;20025;-78
2023/08/29 10:31:04;;;;;;;4.40;1.40;;;;;;;21.46;71.89;101183.72;5054273;28;20029;-79
2023/08/29 10:33:30;;;;;;;2.55;1.60;;;;;;;21.51;71.43;101200.78;5054632;28;20025;-79
2023/08/29 10:35:55;;;;;;;2.70;1.27;;;;;;;21.47;72.81;101197.66;5054443;28;20032;-79
2023/08/29 10:38:21;;;;;;;2.28;0.90;;;;;;;21.56;73.81;101194.09;5036664;28;20056;-79
2023/08/29 10:40:46;;;;;;;3.38;1.10;;;;;;;21.43;73.74;101177.94;5054793;28;20116;-80
2023/08/29 10:43:24;;;;;;;1.67;0.70;;;;;;;21.59;74.08;101200.81;5054311;28;20479;-77
2023/08/29 10:45:59;;;;;;;2.25;1.02;;;;;;;21.33;72.50;101158.84;5054710;28;20090;-78
2023/08/29 10:48:43;;;;;;;4.28;1.27;;;;;;;21.58;69.72;101196.56;5054515;28;20052;-79
2023/08/29 10:51:13;;;;;;;2.35;0.93;;;;;;;21.66;71.75;101197.41;5035982;28;20484;-79
2023/08/29 10:53:51;;;;;;;3.73;1.30;;;;;;;21.75;69.98;101193.81;5054462;28;20049;-79
2023/08/29 10:56:18;;;;;;;5.38;1.30;;;;;;;21.77;71.02;101188.41;5035563;28;20527;-79
2023/08/29 10:58:45;;;;;;;3.47;1.70;;;;;;;21.61;71.27;101170.78;5054975;28;20021;-79
2023/08/29 11:01:36;;;;;;;3.95;1.92;;;;;;;21.64;70.97;101185.41;5054588;28;20029;-79
2023/08/29 11:04:12;;;;;;;2.45;1.80;;;;;;;21.59;69.50;101172.75;5054032;28;20491;-79
2023/08/29 11:06:57;;;;;;;2.58;1.35;;;;;;;21.82;71.00;101182.66;5053921;28;20028;-79
2023/08/29 11:09:27;;;;;;;3.35;1.80;;;;;;;21.85;65.86;101167.38;5054028;28;20078;-80
2023/08/29 11:12:14;;;;;;;2.75;1.60;;;;;;;21.93;67.65;101148.19;5036115;28;20090;-80
2023/08/29 11:15:06;;;;;;;4.20;1.83;;;;;;;22.43;68.45;101171.75;5054138;28;20108;-79
2023/08/29 11:17:31;;;;;;;4.20;1.55;;;;;;;22.59;63.06;101168.25;4973255;28;20047;-78
2023/08/29 11:20:02;;;;;;;3.22;1.63;;;;;;;22.60;66.64;101152.28;4973015;28;20039;-78